Terminal Aerodrome Forecast
Issued by NWS

Home | Current Version | Previous Version | Text Only | Print | Product List | Glossary On
Versions: 1 2 3 4 5 6 7 8 9 10 11 12 13 14 15 16 17 18 19 20 21 22 23 24 25 26 27 28 29 30 31 32 33 34 35 36 37 38 39 40 41 42 43 44
000
FTAK31 PAFA 271123
TAFASC
TAF
PASC 271123Z 2712/2812 07011KT P6SM FEW004 BKN010 BKN110
     FM271230 08008KT 1/2SM -DZ FG OVC004
     FM271800 05002KT 3SM BR OVC007
     FM272100 03004KT P6SM SCT250
     FM281100 06009KT 1/2SM FZFG VCSH BKN007 OVC060=

USA.gov is the U.S. government's official web portal to all federal, state and local government web resources and services.